Historique des mesures à Cassis (13260), France
Quotidien Résumé Mai 25, 2017 Unités:  Métrique    US   Métrique/US
« Précédent (Jour)
Suivant (Jour) »
Quotidien Hebdomadaire Mensuel Annuel Période au choix
  Maximum: Minimum: Moyenne:
Température: TemperatureC °C 16.6 °C 20.3 °C
Point de rosée: DewpointC °C 12.7 °C 14.7 °C
Humidité: Humidity % 62 % 67 %
Vitesse du vent: 0 km/h 0 km/h 4 km/h
Rafales: 0 km/h - -
Vent:- - SSE
Pression: PressurehPa hPa 1009.4 hPa -
Précipitations: 0.0 mm    
Historical Graphs
 
 
Mesures pour : Mai 25, 2017
Heure Temperature Point de rosée Pression Vent Vitesse du vent Rafales Humidité Pluie (par heure) Conditions
TemperatureC °C DewpointC °C PressurehPa hPa Calm     Humidity % HourlyPrecipMM mm SoftwareType W/m2
00:10 18.9 °C 14.3 °C 1012.4 hPa Calm     75 % 0.0 mm open2300-1.11 W/m2
01:10 18.6 °C 13.7 °C 1011.4 hPa Calm     73 % 0.0 mm open2300-1.11 W/m2
02:10 18.4 °C 13.7 °C 1010.7 hPa Calm     74 % 0.0 mm open2300-1.11 W/m2
03:10 18.3 °C 13.6 °C 1010.4 hPa Calm     74 % 0.0 mm open2300-1.11 W/m2
04:10 17.3 °C 12.8 °C 1010.0 hPa Calm     75 % 0.0 mm open2300-1.11 W/m2
05:11 16.9 °C 12.8 °C 1010.0 hPa Calm     77 % 0.0 mm open2300-1.11 W/m2
06:10 16.6 °C 12.7 °C 1009.4 hPa Calm     78 % 0.0 mm open2300-1.11 W/m2
07:10 17.1 °C 13.2 °C 1009.7 hPa Calm     78 % 0.0 mm open2300-1.11 W/m2
08:10 20.9 °C 15.8 °C 1010.0 hPa Calm     73 % 0.0 mm open2300-1.11 W/m2
09:10 19.5 °C 14.9 °C 1010.4 hPa SSE 12.7 km/h 12.7 km/h 75 % 0.0 mm open2300-1.11 W/m2
10:11 20.8 °C 15.9 °C 1010.7 hPa Calm     74 % 0.0 mm open2300-1.11 W/m2
11:10 23.8 °C 17.3 °C 1011.1 hPa ESE 6.4 km/h 8.9 km/h 67 % 0.0 mm open2300-1.11 W/m2
12:10 24.9 °C 17.6 °C 1011.4 hPa SSE 23.8 km/h 23.8 km/h 64 % 0.0 mm open2300-1.11 W/m2
13:10 25.1 °C 17.6 °C 1011.7 hPa SE 9.8 km/h 10.3 km/h 63 % 0.0 mm open2300-1.11 W/m2
14:10 25.3 °C 17.5 °C 1011.7 hPa SSE 16.9 km/h 16.9 km/h 62 % 0.0 mm open2300-1.11 W/m2
15:10 25.1 °C 17.3 °C 1011.7 hPa SE 8 km/h 12.7 km/h 62 % 0.0 mm open2300-1.11 W/m2
16:10 24.3 °C 16.8 °C 1011.4 hPa West 10.3 km/h 10.3 km/h 63 % 0.0 mm open2300-1.11 W/m2
17:10 24.5 °C 17.0 °C 1011.1 hPa ESE 2.3 km/h 3.4 km/h 63 % 0.0 mm open2300-1.11 W/m2
18:10 23.9 °C 16.7 °C 1011.1 hPa South 1.8 km/h 1.8 km/h 64 % 0.0 mm open2300-1.11 W/m2
19:10 23.3 °C 16.3 °C 1010.7 hPa SSW 8 km/h 8 km/h 65 % 0.0 mm open2300-1.11 W/m2
20:10 22.4 °C 15.7 °C 1010.4 hPa Calm     66 % 0.0 mm open2300-1.11 W/m2
21:10 21.4 °C 15.2 °C 1010.7 hPa Calm     68 % 0.0 mm open2300-1.11 W/m2
22:10 20.4 °C 15.0 °C 1011.4 hPa Calm     71 % 0.0 mm open2300-1.11 W/m2
23:10 19.8 °C 14.8 °C 1011.7 hPa Calm     73 % 0.0 mm open2300-1.11 W/m2
Observations météo à CASSIS
WU-History script by Weather Underground - 1 mb